sensor_id;sensor_type;location;lat;lon;timestamp;pressure;altitude;pressure_sealevel;temperature;humidity
51289;BME280;37372;52.294;5.152;2023-05-23T00:02:10;101975.88;;;13.19;88.41
51289;BME280;37372;52.294;5.152;2023-05-23T00:04:38;101968.91;;;13.16;89.09
51289;BME280;37372;52.294;5.152;2023-05-23T00:07:05;101967.88;;;13.11;88.00
51289;BME280;37372;52.294;5.152;2023-05-23T00:09:31;101969.97;;;13.15;88.56
51289;BME280;37372;52.294;5.152;2023-05-23T00:12:03;101972.50;;;13.17;88.30
51289;BME280;37372;52.294;5.152;2023-05-23T00:14:28;101976.72;;;13.26;88.73
51289;BME280;37372;52.294;5.152;2023-05-23T00:17:04;101979.47;;;13.19;88.39
51289;BME280;37372;52.294;5.152;2023-05-23T00:19:32;101990.34;;;13.14;88.77
51289;BME280;37372;52.294;5.152;2023-05-23T00:22:12;101985.06;;;13.06;89.74
51289;BME280;37372;52.294;5.152;2023-05-23T00:24:41;101968.53;;;13.06;89.57
51289;BME280;37372;52.294;5.152;2023-05-23T00:27:08;101976.63;;;13.01;89.34
51289;BME280;37372;52.294;5.152;2023-05-23T00:29:34;101983.41;;;12.98;88.41
51289;BME280;37372;52.294;5.152;2023-05-23T00:32:10;101964.31;;;13.04;89.10
51289;BME280;37372;52.294;5.152;2023-05-23T00:34:39;101981.25;;;13.00;89.76
51289;BME280;37372;52.294;5.152;2023-05-23T00:37:15;101985.75;;;13.01;89.22
51289;BME280;37372;52.294;5.152;2023-05-23T00:39:46;101977.81;;;13.12;89.68
51289;BME280;37372;52.294;5.152;2023-05-23T00:42:15;101987.41;;;13.02;89.47
51289;BME280;37372;52.294;5.152;2023-05-23T00:44:41;101993.56;;;12.98;90.14
51289;BME280;37372;52.294;5.152;2023-05-23T00:47:10;101994.44;;;12.92;90.34
51289;BME280;37372;52.294;5.152;2023-05-23T00:49:39;101995.06;;;12.94;91.15
51289;BME280;37372;52.294;5.152;2023-05-23T00:52:16;101992.09;;;13.02;91.53
51289;BME280;37372;52.294;5.152;2023-05-23T00:54:42;101996.06;;;13.06;92.01
51289;BME280;37372;52.294;5.152;2023-05-23T00:57:18;101994.41;;;12.98;91.35
51289;BME280;37372;52.294;5.152;2023-05-23T00:59:46;101988.88;;;13.05;92.89
51289;BME280;37372;52.294;5.152;2023-05-23T01:02:18;101994.19;;;13.00;92.58
51289;BME280;37372;52.294;5.152;2023-05-23T01:04:48;101991.25;;;13.01;92.78
51289;BME280;37372;52.294;5.152;2023-05-23T01:07:19;102002.28;;;12.95;93.45
51289;BME280;37372;52.294;5.152;2023-05-23T01:09:45;101998.25;;;12.97;93.26
51289;BME280;37372;52.294;5.152;2023-05-23T01:15:14;101988.72;;;12.93;92.37
51289;BME280;37372;52.294;5.152;2023-05-23T01:18:31;101987.69;;;12.88;91.92
51289;BME280;37372;52.294;5.152;2023-05-23T01:20:42;101981.72;;;12.97;92.10
51289;BME280;37372;52.294;5.152;2023-05-23T01:26:17;101991.25;;;13.01;91.42
51289;BME280;37372;52.294;5.152;2023-05-23T01:28:55;101983.81;;;13.02;91.07
51289;BME280;37372;52.294;5.152;2023-05-23T01:31:34;101995.91;;;13.01;90.88
51289;BME280;37372;52.294;5.152;2023-05-23T01:34:04;101996.94;;;13.00;91.44
51289;BME280;37372;52.294;5.152;2023-05-23T01:36:34;102003.53;;;12.99;91.63
51289;BME280;37372;52.294;5.152;2023-05-23T01:39:07;102000.53;;;13.00;91.77
51289;BME280;37372;52.294;5.152;2023-05-23T01:41:32;102007.53;;;13.03;91.86
51289;BME280;37372;52.294;5.152;2023-05-23T01:43:59;101994.03;;;12.95;91.77
51289;BME280;37372;52.294;5.152;2023-05-23T01:46:32;102005.72;;;12.84;91.91
51289;BME280;37372;52.294;5.152;2023-05-23T01:48:59;101997.25;;;12.79;91.51
51289;BME280;37372;52.294;5.152;2023-05-23T01:51:35;102001.91;;;12.78;91.12
51289;BME280;37372;52.294;5.152;2023-05-23T01:54:01;102004.66;;;12.78;91.20
51289;BME280;37372;52.294;5.152;2023-05-23T01:56:34;101996.19;;;12.80;90.87
51289;BME280;37372;52.294;5.152;2023-05-23T01:59:00;101995.13;;;12.81;90.70
51289;BME280;37372;52.294;5.152;2023-05-23T02:01:36;102002.34;;;12.82;90.95
51289;BME280;37372;52.294;5.152;2023-05-23T02:04:02;102014.38;;;12.87;90.94
51289;BME280;37372;52.294;5.152;2023-05-23T02:06:39;101996.34;;;12.91;90.66
51289;BME280;37372;52.294;5.152;2023-05-23T02:09:05;101993.59;;;12.91;90.19
51289;BME280;37372;52.294;5.152;2023-05-23T02:11:34;102002.09;;;12.90;89.92
51289;BME280;37372;52.294;5.152;2023-05-23T02:14:00;102001.41;;;12.94;90.54
51289;BME280;37372;52.294;5.152;2023-05-23T02:16:37;102009.50;;;12.96;90.13
51289;BME280;37372;52.294;5.152;2023-05-23T02:19:03;102013.31;;;12.95;90.38
51289;BME280;37372;52.294;5.152;2023-05-23T02:21:38;102024.50;;;13.00;90.04
51289;BME280;37372;52.294;5.152;2023-05-23T02:24:04;102030.00;;;13.00;89.60
51289;BME280;37372;52.294;5.152;2023-05-23T02:26:40;102036.59;;;12.99;89.71
51289;BME280;37372;52.294;5.152;2023-05-23T02:29:05;102028.31;;;12.99;89.66
51289;BME280;37372;52.294;5.152;2023-05-23T02:31:41;102029.19;;;12.93;88.32
51289;BME280;37372;52.294;5.152;2023-05-23T02:34:07;102029.44;;;12.85;88.90
51289;BME280;37372;52.294;5.152;2023-05-23T02:36:38;102045.38;;;12.69;88.06
51289;BME280;37372;52.294;5.152;2023-05-23T02:39:05;102049.38;;;12.73;87.73
51289;BME280;37372;52.294;5.152;2023-05-23T02:41:31;102045.78;;;12.73;87.48
51289;BME280;37372;52.294;5.152;2023-05-23T02:43:59;102047.88;;;12.78;88.35
51289;BME280;37372;52.294;5.152;2023-05-23T02:46:24;102057.63;;;12.73;87.80
51289;BME280;37372;52.294;5.152;2023-05-23T02:48:50;102046.63;;;12.73;88.12
51289;BME280;37372;52.294;5.152;2023-05-23T02:51:16;102047.88;;;12.78;87.99
51289;BME280;37372;52.294;5.152;2023-05-23T02:53:41;102053.22;;;12.66;87.73
51289;BME280;37372;52.294;5.152;2023-05-23T02:56:07;102056.59;;;12.61;87.80
51289;BME280;37372;52.294;5.152;2023-05-23T02:58:34;102049.00;;;12.63;87.33
51289;BME280;37372;52.294;5.152;2023-05-23T03:01:01;102049.63;;;12.65;87.67
51289;BME280;37372;52.294;5.152;2023-05-23T03:03:27;102054.50;;;12.63;87.68
51289;BME280;37372;52.294;5.152;2023-05-23T03:05:53;102058.94;;;12.64;87.49
51289;BME280;37372;52.294;5.152;2023-05-23T03:08:19;102054.69;;;12.62;87.81
51289;BME280;37372;52.294;5.152;2023-05-23T03:10:45;102053.00;;;12.61;87.69
51289;BME280;37372;52.294;5.152;2023-05-23T03:13:10;102056.41;;;12.56;87.21
51289;BME280;37372;52.294;5.152;2023-05-23T03:15:37;102055.75;;;12.54;86.73
51289;BME280;37372;52.294;5.152;2023-05-23T03:18:03;102070.19;;;12.43;86.41
51289;BME280;37372;52.294;5.152;2023-05-23T03:20:29;102054.72;;;12.42;86.63
51289;BME280;37372;52.294;5.152;2023-05-23T03:22:59;102065.53;;;12.37;86.72
51289;BME280;37372;52.294;5.152;2023-05-23T03:25:24;102057.91;;;12.39;86.47
51289;BME280;37372;52.294;5.152;2023-05-23T03:27:51;102065.09;;;12.40;86.96
51289;BME280;37372;52.294;5.152;2023-05-23T03:30:16;102062.78;;;12.37;86.73
51289;BME280;37372;52.294;5.152;2023-05-23T03:32:56;102061.50;;;12.39;87.04
51289;BME280;37372;52.294;5.152;2023-05-23T03:35:25;102067.22;;;12.38;86.19
51289;BME280;37372;52.294;5.152;2023-05-23T03:37:51;102064.03;;;12.34;86.42
51289;BME280;37372;52.294;5.152;2023-05-23T03:40:17;102065.34;;;12.32;86.58
51289;BME280;37372;52.294;5.152;2023-05-23T03:42:48;102066.56;;;12.36;87.00
51289;BME280;37372;52.294;5.152;2023-05-23T03:45:16;102075.69;;;12.36;87.13
51289;BME280;37372;52.294;5.152;2023-05-23T03:47:49;102085.84;;;12.36;86.49
51289;BME280;37372;52.294;5.152;2023-05-23T03:50:15;102081.84;;;12.32;86.38
51289;BME280;37372;52.294;5.152;2023-05-23T03:52:47;102081.19;;;12.30;86.84
51289;BME280;37372;52.294;5.152;2023-05-23T03:55:33;102090.09;;;12.32;86.87
51289;BME280;37372;52.294;5.152;2023-05-23T03:57:58;102087.75;;;12.35;87.03
51289;BME280;37372;52.294;5.152;2023-05-23T04:00:24;102088.19;;;12.26;86.79
51289;BME280;37372;52.294;5.152;2023-05-23T04:02:53;102092.00;;;12.31;86.78
51289;BME280;37372;52.294;5.152;2023-05-23T04:05:18;102097.06;;;12.21;85.95
51289;BME280;37372;52.294;5.152;2023-05-23T04:07:48;102104.91;;;12.17;85.70
51289;BME280;37372;52.294;5.152;2023-05-23T04:10:15;102101.50;;;12.09;85.39
51289;BME280;37372;52.294;5.152;2023-05-23T04:12:44;102103.00;;;12.11;86.23
51289;BME280;37372;52.294;5.152;2023-05-23T04:15:19;102115.69;;;12.06;85.59
51289;BME280;37372;52.294;5.152;2023-05-23T04:17:48;102114.00;;;11.98;85.30
51289;BME280;37372;52.294;5.152;2023-05-23T04:20:16;102108.91;;;12.02;85.83
51289;BME280;37372;52.294;5.152;2023-05-23T04:22:49;102112.91;;;11.92;85.25
51289;BME280;37372;52.294;5.152;2023-05-23T04:25:35;102128.78;;;11.97;86.01
51289;BME280;37372;52.294;5.152;2023-05-23T04:28:00;102124.53;;;11.88;85.83
51289;BME280;37372;52.294;5.152;2023-05-23T04:30:26;102124.09;;;11.84;84.31
51289;BME280;37372;52.294;5.152;2023-05-23T04:32:54;102116.28;;;11.88;84.65
51289;BME280;37372;52.294;5.152;2023-05-23T04:35:23;102122.63;;;11.88;84.42
51289;BME280;37372;52.294;5.152;2023-05-23T04:37:49;102133.41;;;11.83;84.32
51289;BME280;37372;52.294;5.152;2023-05-23T04:40:14;102140.13;;;11.74;83.63
51289;BME280;37372;52.294;5.152;2023-05-23T04:42:41;102144.59;;;11.82;83.76
51289;BME280;37372;52.294;5.152;2023-05-23T04:45:12;102135.97;;;11.91;83.79
51289;BME280;37372;52.294;5.152;2023-05-23T04:47:38;102148.00;;;11.90;83.44
51289;BME280;37372;52.294;5.152;2023-05-23T04:50:04;102142.25;;;11.79;82.70
51289;BME280;37372;52.294;5.152;2023-05-23T04:52:29;102149.25;;;11.81;82.17
51289;BME280;37372;52.294;5.152;2023-05-23T04:55:00;102154.28;;;11.78;82.51
51289;BME280;37372;52.294;5.152;2023-05-23T04:57:26;102150.25;;;11.67;81.35
51289;BME280;37372;52.294;5.152;2023-05-23T04:59:52;102152.75;;;11.62;80.76
51289;BME280;37372;52.294;5.152;2023-05-23T05:02:18;102157.22;;;11.70;81.26
51289;BME280;37372;52.294;5.152;2023-05-23T05:04:47;102160.41;;;11.73;80.77
51289;BME280;37372;52.294;5.152;2023-05-23T05:07:16;102168.00;;;11.71;80.54
51289;BME280;37372;52.294;5.152;2023-05-23T05:09:42;102172.03;;;11.69;80.35
51289;BME280;37372;52.294;5.152;2023-05-23T05:12:11;102171.41;;;11.66;79.81
51289;BME280;37372;52.294;5.152;2023-05-23T05:14:37;102168.84;;;11.72;80.47
51289;BME280;37372;52.294;5.152;2023-05-23T05:17:04;102171.41;;;11.73;79.26
51289;BME280;37372;52.294;5.152;2023-05-23T05:19:37;102183.47;;;11.72;78.71
51289;BME280;37372;52.294;5.152;2023-05-23T05:22:02;102177.38;;;11.83;78.56
51289;BME280;37372;52.294;5.152;2023-05-23T05:24:38;102191.50;;;11.74;77.58
51289;BME280;37372;52.294;5.152;2023-05-23T05:27:13;102192.41;;;11.81;77.88
51289;BME280;37372;52.294;5.152;2023-05-23T05:29:38;102197.22;;;11.72;76.59
51289;BME280;37372;52.294;5.152;2023-05-23T05:32:04;102205.22;;;11.67;77.82
51289;BME280;37372;52.294;5.152;2023-05-23T05:34:33;102209.88;;;11.66;78.04
51289;BME280;37372;52.294;5.152;2023-05-23T05:36:59;102217.31;;;11.73;78.20
51289;BME280;37372;52.294;5.152;2023-05-23T05:39:25;102207.97;;;11.67;78.22
51289;BME280;37372;52.294;5.152;2023-05-23T05:41:50;102213.25;;;11.69;78.10
51289;BME280;37372;52.294;5.152;2023-05-23T05:44:16;102210.88;;;11.59;77.96
51289;BME280;37372;52.294;5.152;2023-05-23T05:46:41;102213.03;;;11.63;76.95
51289;BME280;37372;52.294;5.152;2023-05-23T05:49:07;102210.06;;;11.65;77.72
51289;BME280;37372;52.294;5.152;2023-05-23T05:51:32;102212.44;;;11.75;79.00
51289;BME280;37372;52.294;5.152;2023-05-23T05:54:01;102217.78;;;11.83;78.62
51289;BME280;37372;52.294;5.152;2023-05-23T05:56:35;102218.25;;;11.93;78.41
51289;BME280;37372;52.294;5.152;2023-05-23T05:59:04;102215.06;;;11.89;78.87
51289;BME280;37372;52.294;5.152;2023-05-23T06:01:30;102215.78;;;11.63;78.55
51289;BME280;37372;52.294;5.152;2023-05-23T06:03:55;102220.09;;;11.79;79.15
51289;BME280;37372;52.294;5.152;2023-05-23T06:06:20;102212.50;;;11.81;79.49
51289;BME280;37372;52.294;5.152;2023-05-23T06:08:46;102217.69;;;11.70;81.13
51289;BME280;37372;52.294;5.152;2023-05-23T06:11:12;102236.31;;;11.68;81.88
51289;BME280;37372;52.294;5.152;2023-05-23T06:13:47;102231.19;;;11.64;82.04
51289;BME280;37372;52.294;5.152;2023-05-23T06:16:33;102236.84;;;11.50;83.53
51289;BME280;37372;52.294;5.152;2023-05-23T06:18:59;102234.75;;;11.58;84.28
51289;BME280;37372;52.294;5.152;2023-05-23T06:21:24;102234.78;;;11.65;84.56
51289;BME280;37372;52.294;5.152;2023-05-23T06:23:50;102231.00;;;11.59;85.16
51289;BME280;37372;52.294;5.152;2023-05-23T06:26:16;102243.84;;;11.59;85.32
51289;BME280;37372;52.294;5.152;2023-05-23T06:28:42;102249.19;;;11.60;85.52
51289;BME280;37372;52.294;5.152;2023-05-23T06:31:18;102241.06;;;11.52;86.60
51289;BME280;37372;52.294;5.152;2023-05-23T06:34:01;102249.25;;;11.39;86.62
51289;BME280;37372;52.294;5.152;2023-05-23T06:36:27;102245.25;;;11.42;87.02
51289;BME280;37372;52.294;5.152;2023-05-23T06:38:52;102247.97;;;11.35;85.80
51289;BME280;37372;52.294;5.152;2023-05-23T06:41:18;102244.81;;;11.38;85.85
51289;BME280;37372;52.294;5.152;2023-05-23T06:43:44;102249.69;;;11.43;83.68
51289;BME280;37372;52.294;5.152;2023-05-23T06:46:10;102250.22;;;11.59;83.16
51289;BME280;37372;52.294;5.152;2023-05-23T06:48:39;102244.81;;;11.73;79.61
51289;BME280;37372;52.294;5.152;2023-05-23T06:51:05;102243.09;;;11.78;78.03
51289;BME280;37372;52.294;5.152;2023-05-23T06:53:30;102258.63;;;11.86;76.66
51289;BME280;37372;52.294;5.152;2023-05-23T06:55:56;102245.34;;;12.03;74.88
51289;BME280;37372;52.294;5.152;2023-05-23T06:58:24;102250.75;;;12.31;73.58
51289;BME280;37372;52.294;5.152;2023-05-23T07:00:51;102249.47;;;12.33;72.03
51289;BME280;37372;52.294;5.152;2023-05-23T07:03:26;102255.03;;;12.66;71.46
51289;BME280;37372;52.294;5.152;2023-05-23T07:05:52;102267.31;;;12.57;71.16
51289;BME280;37372;52.294;5.152;2023-05-23T07:08:21;102266.88;;;12.54;71.31
51289;BME280;37372;52.294;5.152;2023-05-23T07:10:50;102267.06;;;12.45;72.20
51289;BME280;37372;52.294;5.152;2023-05-23T07:13:28;102274.69;;;12.30;69.42
51289;BME280;37372;52.294;5.152;2023-05-23T07:15:57;102260.91;;;12.30;69.13
51289;BME280;37372;52.294;5.152;2023-05-23T07:18:25;102267.94;;;12.46;69.39
51289;BME280;37372;52.294;5.152;2023-05-23T07:20:51;102277.06;;;12.66;70.10
51289;BME280;37372;52.294;5.152;2023-05-23T07:23:23;102275.59;;;12.70;70.31
51289;BME280;37372;52.294;5.152;2023-05-23T07:25:52;102281.09;;;12.70;71.87
51289;BME280;37372;52.294;5.152;2023-05-23T07:28:21;102271.56;;;12.93;68.58
51289;BME280;37372;52.294;5.152;2023-05-23T07:30:55;102282.41;;;13.01;68.62
51289;BME280;37372;52.294;5.152;2023-05-23T07:33:23;102287.47;;;13.31;68.35
51289;BME280;37372;52.294;5.152;2023-05-23T07:35:49;102287.25;;;13.32;68.97
51289;BME280;37372;52.294;5.152;2023-05-23T07:38:16;102293.63;;;13.33;68.55
51289;BME280;37372;52.294;5.152;2023-05-23T07:40:42;102291.72;;;13.40;67.54
51289;BME280;37372;52.294;5.152;2023-05-23T07:43:08;102291.94;;;13.32;67.46
51289;BME280;37372;52.294;5.152;2023-05-23T07:45:33;102295.13;;;13.28;67.12
51289;BME280;37372;52.294;5.152;2023-05-23T07:47:59;102300.88;;;13.20;66.88
51289;BME280;37372;52.294;5.152;2023-05-23T07:50:25;102304.44;;;13.14;68.99
51289;BME280;37372;52.294;5.152;2023-05-23T07:52:52;102287.88;;;12.88;68.16
51289;BME280;37372;52.294;5.152;2023-05-23T07:55:18;102294.03;;;12.77;68.63
51289;BME280;37372;52.294;5.152;2023-05-23T07:57:46;102289.38;;;12.77;68.79
51289;BME280;37372;52.294;5.152;2023-05-23T08:00:12;102296.13;;;12.68;67.88
51289;BME280;37372;52.294;5.152;2023-05-23T08:02:43;102306.53;;;12.86;68.57
51289;BME280;37372;52.294;5.152;2023-05-23T08:05:15;102302.47;;;12.68;67.68
51289;BME280;37372;52.294;5.152;2023-05-23T08:07:45;102304.84;;;12.85;67.10
51289;BME280;37372;52.294;5.152;2023-05-23T08:10:11;102301.25;;;12.84;66.94
51289;BME280;37372;52.294;5.152;2023-05-23T08:12:51;102304.38;;;12.74;66.68
51289;BME280;37372;52.294;5.152;2023-05-23T08:15:17;102310.34;;;12.78;66.92
51289;BME280;37372;52.294;5.152;2023-05-23T08:17:45;102308.88;;;13.15;65.93
51289;BME280;37372;52.294;5.152;2023-05-23T08:20:21;102307.84;;;13.43;65.70
51289;BME280;37372;52.294;5.152;2023-05-23T08:22:50;102316.09;;;13.16;66.65
51289;BME280;37372;52.294;5.152;2023-05-23T08:25:17;102326.28;;;13.49;66.04
51289;BME280;37372;52.294;5.152;2023-05-23T08:28:01;102324.16;;;13.44;64.95
51289;BME280;37372;52.294;5.152;2023-05-23T08:30:27;102321.00;;;13.34;64.74
51289;BME280;37372;52.294;5.152;2023-05-23T08:32:54;102322.47;;;13.43;64.88
51289;BME280;37372;52.294;5.152;2023-05-23T08:35:26;102319.50;;;13.25;63.71
51289;BME280;37372;52.294;5.152;2023-05-23T08:37:53;102318.81;;;13.69;63.77
51289;BME280;37372;52.294;5.152;2023-05-23T08:40:23;102317.53;;;13.65;65.38
51289;BME280;37372;52.294;5.152;2023-05-23T08:42:51;102327.91;;;13.83;65.66
51289;BME280;37372;52.294;5.152;2023-05-23T08:45:17;102327.22;;;14.01;65.09
51289;BME280;37372;52.294;5.152;2023-05-23T08:47:44;102329.44;;;13.72;63.91
51289;BME280;37372;52.294;5.152;2023-05-23T08:50:20;102344.50;;;13.63;63.18
51289;BME280;37372;52.294;5.152;2023-05-23T08:52:57;102340.63;;;13.77;63.10
51289;BME280;37372;52.294;5.152;2023-05-23T08:55:23;102340.97;;;14.14;63.02
51289;BME280;37372;52.294;5.152;2023-05-23T08:57:56;102344.16;;;14.11;62.81
51289;BME280;37372;52.294;5.152;2023-05-23T09:00:24;102339.16;;;13.81;63.54
51289;BME280;37372;52.294;5.152;2023-05-23T09:02:59;102339.66;;;14.23;64.04
51289;BME280;37372;52.294;5.152;2023-05-23T09:05:28;102341.19;;;14.13;60.34
51289;BME280;37372;52.294;5.152;2023-05-23T09:07:57;102353.94;;;14.07;61.57
51289;BME280;37372;52.294;5.152;2023-05-23T09:10:33;102366.25;;;14.11;62.25
51289;BME280;37372;52.294;5.152;2023-05-23T09:13:00;102358.22;;;13.96;61.78
51289;BME280;37372;52.294;5.152;2023-05-23T09:15:29;102353.78;;;13.89;63.16
51289;BME280;37372;52.294;5.152;2023-05-23T09:17:59;102351.38;;;14.12;64.86
51289;BME280;37372;52.294;5.152;2023-05-23T09:20:36;102350.50;;;14.70;64.25
51289;BME280;37372;52.294;5.152;2023-05-23T09:23:07;102346.09;;;14.94;62.50
51289;BME280;37372;52.294;5.152;2023-05-23T09:26:02;102354.03;;;14.83;60.51
51289;BME280;37372;52.294;5.152;2023-05-23T09:28:35;102355.03;;;14.57;60.84
51289;BME280;37372;52.294;5.152;2023-05-23T09:31:05;102365.44;;;14.04;62.04
51289;BME280;37372;52.294;5.152;2023-05-23T09:33:57;102362.50;;;14.44;61.30
51289;BME280;37372;52.294;5.152;2023-05-23T09:36:27;102369.63;;;14.13;61.52
51289;BME280;37372;52.294;5.152;2023-05-23T09:39:03;102377.75;;;14.59;61.64
51289;BME280;37372;52.294;5.152;2023-05-23T09:41:34;102374.75;;;14.61;58.92
51289;BME280;37372;52.294;5.152;2023-05-23T09:44:21;102373.13;;;14.47;60.07
51289;BME280;37372;52.294;5.152;2023-05-23T09:46:52;102376.50;;;14.42;59.52
51289;BME280;37372;52.294;5.152;2023-05-23T09:49:18;102374.34;;;13.99;62.97
51289;BME280;37372;52.294;5.152;2023-05-23T09:51:59;102379.19;;;14.17;63.18
51289;BME280;37372;52.294;5.152;2023-05-23T09:54:26;102377.66;;;14.21;63.94
51289;BME280;37372;52.294;5.152;2023-05-23T09:56:52;102378.63;;;14.53;63.58
51289;BME280;37372;52.294;5.152;2023-05-23T09:59:21;102372.75;;;14.36;62.29
51289;BME280;37372;52.294;5.152;2023-05-23T10:01:50;102387.81;;;14.34;62.71
51289;BME280;37372;52.294;5.152;2023-05-23T10:04:20;102384.13;;;13.82;61.85
51289;BME280;37372;52.294;5.152;2023-05-23T10:06:51;102379.94;;;14.38;61.59
51289;BME280;37372;52.294;5.152;2023-05-23T10:09:20;102385.34;;;14.71;61.87
51289;BME280;37372;52.294;5.152;2023-05-23T10:14:45;102381.19;;;14.42;62.04
51289;BME280;37372;52.294;5.152;2023-05-23T10:18:01;102392.50;;;14.27;62.84
51289;BME280;37372;52.294;5.152;2023-05-23T10:20:32;102397.81;;;14.22;63.60
51289;BME280;37372;52.294;5.152;2023-05-23T10:22:59;102390.16;;;14.37;63.82
51289;BME280;37372;52.294;5.152;2023-05-23T10:25:26;102394.38;;;14.40;61.98
51289;BME280;37372;52.294;5.152;2023-05-23T10:27:54;102393.09;;;14.87;60.58
51289;BME280;37372;52.294;5.152;2023-05-23T10:30:24;102390.16;;;14.88;60.16
51289;BME280;37372;52.294;5.152;2023-05-23T10:32:51;102397.88;;;15.05;62.77
51289;BME280;37372;52.294;5.152;2023-05-23T10:35:28;102404.00;;;15.13;58.35
51289;BME280;37372;52.294;5.152;2023-05-23T10:41:40;102406.69;;;14.95;56.61
51289;BME280;37372;52.294;5.152;2023-05-23T10:46:58;102396.06;;;15.24;58.64
51289;BME280;37372;52.294;5.152;2023-05-23T10:49:41;102404.28;;;15.62;59.97
51289;BME280;37372;52.294;5.152;2023-05-23T10:52:10;102412.44;;;15.50;56.64
51289;BME280;37372;52.294;5.152;2023-05-23T10:54:53;102398.91;;;15.42;59.05
51289;BME280;37372;52.294;5.152;2023-05-23T10:57:28;102390.06;;;15.02;58.88
51289;BME280;37372;52.294;5.152;2023-05-23T10:59:54;102401.91;;;14.71;62.07
51289;BME280;37372;52.294;5.152;2023-05-23T11:02:27;102404.59;;;14.32;62.96
51289;BME280;37372;52.294;5.152;2023-05-23T11:05:18;102407.84;;;14.03;65.43
51289;BME280;37372;52.294;5.152;2023-05-23T11:08:08;102403.78;;;14.25;63.83
51289;BME280;37372;52.294;5.152;2023-05-23T11:10:53;102409.31;;;14.77;61.60
51289;BME280;37372;52.294;5.152;2023-05-23T11:13:22;102405.00;;;14.87;61.52
51289;BME280;37372;52.294;5.152;2023-05-23T11:15:48;102409.53;;;14.82;59.42
51289;BME280;37372;52.294;5.152;2023-05-23T11:18:31;102411.47;;;14.68;59.51
51289;BME280;37372;52.294;5.152;2023-05-23T11:20:59;102420.69;;;14.42;57.70
51289;BME280;37372;52.294;5.152;2023-05-23T11:23:38;102412.97;;;13.99;60.31
51289;BME280;37372;52.294;5.152;2023-05-23T11:26:31;102425.06;;;14.12;59.90
51289;BME280;37372;52.294;5.152;2023-05-23T11:28:57;102420.34;;;14.25;59.53
51289;BME280;37372;52.294;5.152;2023-05-23T11:31:24;102403.31;;;14.86;60.43
51289;BME280;37372;52.294;5.152;2023-05-23T11:33:51;102422.16;;;15.03;60.45
51289;BME280;37372;52.294;5.152;2023-05-23T11:36:16;102422.56;;;14.61;59.63
51289;BME280;37372;52.294;5.152;2023-05-23T11:38:42;102416.19;;;14.61;59.71
51289;BME280;37372;52.294;5.152;2023-05-23T11:41:08;102418.19;;;14.27;60.31
51289;BME280;37372;52.294;5.152;2023-05-23T11:43:36;102416.09;;;14.23;61.11
51289;BME280;37372;52.294;5.152;2023-05-23T11:46:08;102414.31;;;14.42;59.39
51289;BME280;37372;52.294;5.152;2023-05-23T11:48:34;102419.44;;;14.96;60.01
51289;BME280;37372;52.294;5.152;2023-05-23T11:51:00;102410.00;;;15.35;58.86
51289;BME280;37372;52.294;5.152;2023-05-23T11:53:27;102417.69;;;15.33;57.65
51289;BME280;37372;52.294;5.152;2023-05-23T11:55:56;102417.47;;;15.60;57.64
51289;BME280;37372;52.294;5.152;2023-05-23T11:58:37;102413.63;;;15.61;57.19
51289;BME280;37372;52.294;5.152;2023-05-23T12:01:05;102407.38;;;15.47;56.00
51289;BME280;37372;52.294;5.152;2023-05-23T12:03:34;102413.59;;;15.11;56.58
51289;BME280;37372;52.294;5.152;2023-05-23T12:06:21;102408.09;;;15.36;57.57
51289;BME280;37372;52.294;5.152;2023-05-23T12:08:49;102418.03;;;14.74;58.77
51289;BME280;37372;52.294;5.152;2023-05-23T12:11:18;102423.06;;;14.39;59.64
51289;BME280;37372;52.294;5.152;2023-05-23T12:13:44;102425.03;;;14.18;60.09
51289;BME280;37372;52.294;5.152;2023-05-23T12:16:12;102421.84;;;14.15;59.77
51289;BME280;37372;52.294;5.152;2023-05-23T12:18:46;102425.47;;;14.08;59.90
51289;BME280;37372;52.294;5.152;2023-05-23T12:21:18;102427.81;;;14.12;58.83
51289;BME280;37372;52.294;5.152;2023-05-23T12:23:46;102430.13;;;14.15;59.54
51289;BME280;37372;52.294;5.152;2023-05-23T12:26:30;102419.78;;;14.61;60.28
51289;BME280;37372;52.294;5.152;2023-05-23T12:28:56;102416.66;;;14.96;57.91
51289;BME280;37372;52.294;5.152;2023-05-23T12:31:26;102422.28;;;14.76;57.47
51289;BME280;37372;52.294;5.152;2023-05-23T12:33:52;102432.41;;;14.96;58.15
51289;BME280;37372;52.294;5.152;2023-05-23T12:36:24;102430.38;;;14.71;59.65
51289;BME280;37372;52.294;5.152;2023-05-23T12:39:01;102426.03;;;14.95;60.43
51289;BME280;37372;52.294;5.152;2023-05-23T12:41:31;102420.00;;;14.67;59.39
51289;BME280;37372;52.294;5.152;2023-05-23T12:43:58;102420.59;;;15.38;61.15
51289;BME280;37372;52.294;5.152;2023-05-23T12:46:28;102435.97;;;15.34;59.07
51289;BME280;37372;52.294;5.152;2023-05-23T12:48:54;102439.16;;;15.00;58.10
51289;BME280;37372;52.294;5.152;2023-05-23T12:51:20;102438.84;;;14.83;61.92
51289;BME280;37372;52.294;5.152;2023-05-23T12:53:46;102442.63;;;14.88;57.81
51289;BME280;37372;52.294;5.152;2023-05-23T12:56:12;102438.69;;;14.71;55.14
51289;BME280;37372;52.294;5.152;2023-05-23T12:58:50;102423.66;;;14.99;55.88
51289;BME280;37372;52.294;5.152;2023-05-23T13:01:17;102441.75;;;14.95;55.06
51289;BME280;37372;52.294;5.152;2023-05-23T13:03:46;102439.97;;;15.07;55.30
51289;BME280;37372;52.294;5.152;2023-05-23T13:06:11;102439.25;;;15.18;56.44
51289;BME280;37372;52.294;5.152;2023-05-23T13:08:43;102453.25;;;14.92;57.98
51289;BME280;37372;52.294;5.152;2023-05-23T13:11:11;102442.88;;;15.18;57.83
51289;BME280;37372;52.294;5.152;2023-05-23T13:13:37;102446.72;;;14.79;58.20
51289;BME280;37372;52.294;5.152;2023-05-23T13:16:20;102455.97;;;14.47;59.63
51289;BME280;37372;52.294;5.152;2023-05-23T13:18:58;102452.09;;;14.61;59.89
51289;BME280;37372;52.294;5.152;2023-05-23T13:21:32;102457.25;;;14.51;59.25